Time;durP1;ratioP1;P1;durP2;ratioP2;P2;SDS_P1;SDS_P2;PMS_P1;PMS_P2;Temp;Humidity;BMP_temperature;BMP_pressure;BME280_temperature;BME280_humidity;BME280_pressure;Samples;Min_cycle;Max_cycle;Signal;HPM_P1;HPM_P2
2021/11/26 00:01:09;;;;;;;26.53;17.93;;;4.00;99.90;;;;;;5013242;28;20215;-60
2021/11/26 00:03:35;;;;;;;28.53;18.10;;;3.90;99.90;;;;;;5013061;28;20230;-60
2021/11/26 00:06:02;;;;;;;29.40;17.50;;;4.10;99.90;;;;;;5013303;28;20195;-61
2021/11/26 00:08:29;;;;;;;25.70;17.50;;;4.40;99.90;;;;;;5012983;28;20214;-59
2021/11/26 00:10:56;;;;;;;26.20;17.50;;;4.60;99.90;;;;;;5013137;28;20210;-59
2021/11/26 00:13:28;;;;;;;26.53;17.20;;;4.70;99.90;;;;;;5012994;28;20238;-60
2021/11/26 00:15:58;;;;;;;26.63;17.40;;;4.60;99.90;;;;;;5012954;28;20211;-61
2021/11/26 00:18:27;;;;;;;28.67;17.70;;;4.70;99.90;;;;;;5012987;28;20214;-61
2021/11/26 00:20:55;;;;;;;28.03;18.60;;;4.80;99.90;;;;;;5013044;28;20206;-61
2021/11/26 00:23:22;;;;;;;26.97;18.10;;;4.90;99.90;;;;;;5029617;23;20235;-56
2021/11/26 00:25:49;;;;;;;28.63;18.30;;;5.00;99.90;;;;;;4993327;28;20227;-56
2021/11/26 00:28:15;;;;;;;27.23;18.03;;;4.90;99.90;;;;;;4993201;28;20223;-56
2021/11/26 00:30:42;;;;;;;27.40;17.87;;;4.80;99.90;;;;;;4993616;28;20211;-56
2021/11/26 00:33:09;;;;;;;29.63;17.90;;;4.90;99.90;;;;;;4993279;28;20232;-56
2021/11/26 00:35:37;;;;;;;28.43;17.60;;;5.00;99.90;;;;;;4993389;28;20203;-56
2021/11/26 00:38:03;;;;;;;27.73;18.33;;;5.10;99.90;;;;;;4992859;28;20667;-56
2021/11/26 00:40:30;;;;;;;28.47;17.73;;;5.20;99.90;;;;;;4993218;28;20235;-56
2021/11/26 00:42:57;;;;;;;27.83;19.07;;;5.30;99.90;;;;;;4992890;28;20215;-56
2021/11/26 00:45:24;;;;;;;28.47;19.23;;;5.30;99.90;;;;;;4993044;28;20227;-56
2021/11/26 00:47:51;;;;;;;26.03;17.10;;;5.30;99.90;;;;;;4993089;28;20239;-56
2021/11/26 00:50:18;;;;;;;27.47;18.20;;;5.30;99.90;;;;;;4992736;28;20675;-56
2021/11/26 00:52:46;;;;;;;27.73;17.67;;;5.30;99.90;;;;;;4992848;28;20211;-56
2021/11/26 00:55:13;;;;;;;29.10;19.03;;;5.30;99.90;;;;;;4992921;28;20300;-56
2021/11/26 00:57:40;;;;;;;28.77;18.93;;;5.20;99.90;;;;;;4992739;28;20219;-56
2021/11/26 01:00:10;;;;;;;28.40;18.63;;;5.00;99.90;;;;;;4992709;28;20214;-56
2021/11/26 01:02:38;;;;;;;29.40;19.60;;;5.00;99.90;;;;;;4992845;28;20698;-57
2021/11/26 01:05:06;;;;;;;29.77;20.13;;;5.00;99.90;;;;;;4992644;28;20231;-56
2021/11/26 01:07:33;;;;;;;29.30;19.47;;;5.10;99.90;;;;;;4992544;28;20211;-56
2021/11/26 01:10:02;;;;;;;27.50;18.53;;;5.10;99.90;;;;;;4992379;28;20667;-57
2021/11/26 01:12:28;;;;;;;30.03;18.47;;;5.30;99.90;;;;;;4992922;28;20212;-57
2021/11/26 01:14:55;;;;;;;27.33;18.70;;;5.30;99.90;;;;;;4992838;28;20219;-57
2021/11/26 01:17:22;;;;;;;27.50;18.77;;;5.30;99.90;;;;;;4992781;28;20237;-56
2021/11/26 01:19:49;;;;;;;30.17;20.30;;;5.20;99.90;;;;;;4992465;28;20215;-56
2021/11/26 01:22:16;;;;;;;27.23;19.13;;;5.10;99.90;;;;;;4992535;28;20208;-56
2021/11/26 01:24:43;;;;;;;29.70;20.23;;;5.10;99.90;;;;;;5008653;28;20262;-56
2021/11/26 01:27:11;;;;;;;30.53;20.00;;;5.10;99.90;;;;;;5012242;28;20229;-56
2021/11/26 01:29:38;;;;;;;29.90;19.23;;;5.00;99.90;;;;;;5011998;28;20237;-57
2021/11/26 01:32:06;;;;;;;31.33;19.37;;;5.00;99.90;;;;;;5012103;28;20211;-56
2021/11/26 01:34:33;;;;;;;29.13;19.13;;;4.90;99.90;;;;;;5012571;28;20231;-56
2021/11/26 01:37:00;;;;;;;30.80;19.67;;;4.90;99.90;;;;;;5015826;28;20214;-56
2021/11/26 01:39:26;;;;;;;30.00;20.47;;;4.70;99.90;;;;;;5015896;28;20206;-56
2021/11/26 01:41:54;;;;;;;29.43;20.00;;;4.70;99.90;;;;;;5016180;28;20211;-56
2021/11/26 01:44:22;;;;;;;27.60;19.03;;;4.80;99.90;;;;;;5015756;28;20237;-57
2021/11/26 01:46:49;;;;;;;28.50;19.50;;;4.90;99.90;;;;;;5015817;28;20214;-56
2021/11/26 01:49:16;;;;;;;27.00;18.80;;;5.00;99.90;;;;;;5015678;28;20584;-57
2021/11/26 01:51:43;;;;;;;31.93;20.37;;;5.10;99.90;;;;;;5015560;28;20701;-56
2021/11/26 01:54:10;;;;;;;32.33;20.00;;;5.00;99.90;;;;;;5015473;28;20238;-56
2021/11/26 01:56:37;;;;;;;30.50;20.13;;;5.00;99.90;;;;;;5015712;28;20588;-56
2021/11/26 01:59:04;;;;;;;30.40;20.33;;;4.90;99.90;;;;;;5015416;28;20202;-56
2021/11/26 02:01:33;;;;;;;29.53;19.63;;;4.90;99.90;;;;;;5015551;28;20207;-57
2021/11/26 02:03:59;;;;;;;29.17;21.03;;;5.00;99.90;;;;;;5015349;28;20648;-57
2021/11/26 02:06:26;;;;;;;33.20;20.67;;;5.10;99.90;;;;;;5015236;28;20234;-57
2021/11/26 02:08:53;;;;;;;32.10;21.00;;;4.90;99.90;;;;;;5015324;28;20207;-56
2021/11/26 02:11:20;;;;;;;28.93;20.07;;;4.80;99.90;;;;;;5015331;28;20215;-56
2021/11/26 02:13:46;;;;;;;34.50;22.23;;;4.80;99.90;;;;;;5015164;28;20238;-56
2021/11/26 02:16:13;;;;;;;33.17;21.60;;;4.90;99.90;;;;;;5015296;28;20206;-56
2021/11/26 02:18:41;;;;;;;31.83;20.43;;;5.00;99.90;;;;;;5015050;28;20258;-57
2021/11/26 02:21:09;;;;;;;32.53;20.87;;;5.10;99.90;;;;;;5014986;28;20207;-56
2021/11/26 02:23:36;;;;;;;31.87;21.33;;;5.00;99.90;;;;;;5015095;28;20238;-56
2021/11/26 02:26:03;;;;;;;32.60;21.10;;;4.90;99.90;;;;;;5014883;28;20706;-56
2021/11/26 02:28:29;;;;;;;30.13;20.60;;;4.90;99.90;;;;;;5014930;28;20230;-56
2021/11/26 02:30:56;;;;;;;33.03;21.90;;;4.90;99.90;;;;;;5015011;28;20229;-56
2021/11/26 02:33:24;;;;;;;31.27;21.53;;;5.00;99.90;;;;;;5015207;28;20231;-56
2021/11/26 02:35:53;;;;;;;33.37;22.07;;;5.00;99.90;;;;;;5014748;28;20211;-56
2021/11/26 02:38:23;;;;;;;34.77;21.23;;;5.00;99.90;;;;;;5014589;28;20207;-56
2021/11/26 02:40:50;;;;;;;31.27;20.57;;;5.00;99.90;;;;;;5014912;28;20253;-56
2021/11/26 02:43:17;;;;;;;32.97;22.50;;;5.10;99.90;;;;;;5014643;28;20223;-56
2021/11/26 02:45:46;;;;;;;36.17;22.10;;;5.20;99.90;;;;;;5014331;28;20241;-56
2021/11/26 02:48:14;;;;;;;39.77;24.17;;;5.20;99.90;;;;;;5014341;28;20215;-56
2021/11/26 02:50:42;;;;;;;36.87;23.30;;;5.30;99.90;;;;;;5014763;28;20218;-57
2021/11/26 02:53:10;;;;;;;34.57;22.20;;;5.30;99.90;;;;;;5014596;28;20235;-56
2021/11/26 02:55:39;;;;;;;33.57;23.10;;;5.50;99.90;;;;;;5014616;28;20207;-56
2021/11/26 02:58:07;;;;;;;34.30;23.03;;;5.30;99.90;;;;;;5014489;28;20241;-56
2021/11/26 03:00:35;;;;;;;35.17;23.33;;;5.30;99.90;;;;;;5014044;28;20203;-56
2021/11/26 03:03:01;;;;;;;35.93;23.90;;;5.20;99.90;;;;;;5014203;28;20735;-56
2021/11/26 03:05:28;;;;;;;33.57;23.07;;;5.20;99.90;;;;;;5014352;28;20325;-56
2021/11/26 03:07:55;;;;;;;37.60;23.40;;;5.30;99.90;;;;;;5014182;28;20693;-56
2021/11/26 03:10:23;;;;;;;35.20;22.93;;;5.30;99.90;;;;;;5013971;28;20211;-56
2021/11/26 03:12:54;;;;;;;33.93;24.03;;;5.30;99.90;;;;;;5014199;28;20215;-57
2021/11/26 03:15:21;;;;;;;36.07;24.13;;;5.30;99.90;;;;;;5014305;28;20195;-57
2021/11/26 03:17:49;;;;;;;35.73;23.20;;;5.30;99.90;;;;;;5014179;28;20302;-58
2021/11/26 03:20:15;;;;;;;36.43;22.93;;;5.20;99.90;;;;;;5013845;28;20218;-57
2021/11/26 03:22:42;;;;;;;36.77;24.10;;;5.10;99.90;;;;;;5013756;28;20215;-57
2021/11/26 03:25:10;;;;;;;41.50;25.13;;;5.10;99.90;;;;;;5013852;28;20227;-57
2021/11/26 03:27:37;;;;;;;36.63;24.30;;;5.20;99.90;;;;;;5013755;28;20229;-55
2021/11/26 03:30:08;;;;;;;38.57;24.90;;;4.90;99.90;;;;;;5013869;28;20215;-55
2021/11/26 03:32:35;;;;;;;35.23;23.87;;;4.60;99.90;;;;;;5013733;28;20667;-55
2021/11/26 03:35:01;;;;;;;39.90;25.30;;;4.70;99.90;;;;;;5013731;28;20634;-55
2021/11/26 03:37:28;;;;;;;37.27;24.07;;;4.70;99.90;;;;;;5013701;28;20214;-55
2021/11/26 03:39:55;;;;;;;37.53;24.63;;;4.80;99.90;;;;;;5013312;28;20210;-55
2021/11/26 03:42:22;;;;;;;37.03;25.17;;;4.90;99.90;;;;;;5013453;28;20407;-55
2021/11/26 03:44:48;;;;;;;39.93;24.53;;;4.90;99.90;;;;;;5013585;28;20651;-55
2021/11/26 03:47:16;;;;;;;38.33;24.57;;;5.00;99.90;;;;;;5013485;28;20207;-55
2021/11/26 03:49:43;;;;;;;36.97;24.03;;;5.10;99.90;;;;;;5013193;28;20627;-56
2021/11/26 03:52:10;;;;;;;38.03;24.63;;;5.10;99.90;;;;;;5013853;28;20265;-56
2021/11/26 03:54:38;;;;;;;40.10;25.60;;;5.00;99.90;;;;;;5013342;28;20233;-55
2021/11/26 03:57:05;;;;;;;38.63;26.00;;;5.00;99.90;;;;;;5012767;28;20575;-55
2021/11/26 03:59:32;;;;;;;40.73;24.53;;;5.10;99.90;;;;;;5013185;28;20211;-55
2021/11/26 04:01:59;;;;;;;37.73;24.03;;;5.00;99.90;;;;;;5013358;28;20214;-55
2021/11/26 04:04:27;;;;;;;42.83;26.10;;;5.00;99.90;;;;;;5013219;28;20234;-55
2021/11/26 04:06:54;;;;;;;39.30;25.07;;;4.90;99.90;;;;;;5013135;28;20264;-55
2021/11/26 04:09:20;;;;;;;42.13;25.50;;;4.90;99.90;;;;;;5012864;28;20213;-57
2021/11/26 04:11:47;;;;;;;42.63;27.50;;;4.90;99.90;;;;;;5012989;28;20214;-55
2021/11/26 04:14:14;;;;;;;41.67;27.90;;;4.90;99.90;;;;;;5012960;28;20583;-55
2021/11/26 04:16:40;;;;;;;40.93;26.27;;;4.90;99.90;;;;;;5013058;28;20218;-55
2021/11/26 04:19:07;;;;;;;46.07;28.77;;;5.00;99.90;;;;;;5012785;28;20559;-56
2021/11/26 04:21:35;;;;;;;44.00;27.03;;;5.00;99.90;;;;;;5012929;28;20210;-55
2021/11/26 04:24:03;;;;;;;41.93;26.87;;;5.00;99.90;;;;;;5012568;28;20239;-56
2021/11/26 04:26:30;;;;;;;42.03;27.60;;;5.00;99.90;;;;;;5012855;28;20227;-55
2021/11/26 04:28:57;;;;;;;40.13;26.57;;;5.10;99.90;;;;;;5012690;28;20207;-56
2021/11/26 04:31:24;;;;;;;41.07;27.03;;;5.10;99.90;;;;;;5012800;28;20249;-56
2021/11/26 04:33:50;;;;;;;40.23;26.97;;;5.10;99.90;;;;;;5012665;28;20226;-56
2021/11/26 04:36:17;;;;;;;40.93;26.43;;;5.00;99.90;;;;;;5012623;28;20207;-56
2021/11/26 04:38:45;;;;;;;35.50;24.40;;;4.90;99.90;;;;;;5012391;28;20211;-56
2021/11/26 04:41:12;;;;;;;42.27;27.10;;;4.90;99.90;;;;;;5012748;28;20357;-56
2021/11/26 04:43:39;;;;;;;37.90;25.83;;;4.90;99.90;;;;;;5012493;28;20234;-56
2021/11/26 04:46:05;;;;;;;49.10;30.63;;;4.90;99.90;;;;;;5012419;28;20226;-56
2021/11/26 04:48:32;;;;;;;43.10;27.43;;;4.90;99.90;;;;;;5012649;28;20667;-56
2021/11/26 04:50:59;;;;;;;41.87;26.53;;;4.90;99.90;;;;;;5012425;28;20250;-56
2021/11/26 04:53:26;;;;;;;43.40;27.20;;;5.00;99.90;;;;;;5012530;28;20227;-56
2021/11/26 04:55:54;;;;;;;39.37;26.30;;;5.00;99.90;;;;;;5012551;28;20211;-56
2021/11/26 04:58:20;;;;;;;41.17;25.33;;;5.00;99.90;;;;;;5012451;28;20586;-56
2021/11/26 05:00:47;;;;;;;39.03;26.27;;;4.90;99.90;;;;;;5012271;28;20215;-56
2021/11/26 05:03:14;;;;;;;40.53;26.27;;;4.90;99.90;;;;;;5012628;28;20230;-56
2021/11/26 05:05:40;;;;;;;39.70;25.70;;;4.80;99.90;;;;;;5012685;28;20432;-56
2021/11/26 05:08:07;;;;;;;41.07;25.93;;;4.80;99.90;;;;;;5012770;28;20214;-56
2021/11/26 05:10:34;;;;;;;40.60;25.80;;;4.70;99.90;;;;;;5012387;28;20210;-56
2021/11/26 05:13:03;;;;;;;39.80;25.70;;;4.60;99.90;;;;;;5012503;28;20259;-56
2021/11/26 05:15:32;;;;;;;42.23;26.50;;;4.60;99.90;;;;;;5012423;28;20207;-56
2021/11/26 05:18:01;;;;;;;41.00;25.53;;;4.60;99.90;;;;;;5012140;28;20211;-56
2021/11/26 05:20:29;;;;;;;42.50;27.07;;;4.70;99.90;;;;;;5012061;28;20209;-56
2021/11/26 05:22:57;;;;;;;42.80;27.77;;;4.70;99.90;;;;;;5012182;28;20203;-56
2021/11/26 05:25:24;;;;;;;41.43;26.27;;;4.70;99.90;;;;;;5012021;28;20206;-57
2021/11/26 05:27:51;;;;;;;46.53;29.20;;;4.80;99.90;;;;;;5011787;28;20210;-56
2021/11/26 05:30:19;;;;;;;41.67;26.40;;;4.80;99.90;;;;;;5011556;28;20698;-56
2021/11/26 05:32:47;;;;;;;44.00;27.07;;;4.90;99.90;;;;;;5011691;28;20679;-57
2021/11/26 05:35:15;;;;;;;43.33;26.73;;;4.90;99.90;;;;;;5012126;28;20211;-57
2021/11/26 05:37:42;;;;;;;43.37;28.67;;;4.90;99.90;;;;;;5011908;28;20214;-57
2021/11/26 05:40:11;;;;;;;44.40;28.47;;;5.00;99.90;;;;;;5011809;28;20203;-57
2021/11/26 05:42:38;;;;;;;45.30;27.53;;;5.00;99.90;;;;;;5011796;28;20203;-56
2021/11/26 05:45:07;;;;;;;44.30;28.73;;;5.00;99.90;;;;;;5011787;28;20218;-56
2021/11/26 05:47:35;;;;;;;44.97;27.70;;;5.00;99.90;;;;;;5011795;28;20227;-56
2021/11/26 05:50:02;;;;;;;45.00;28.47;;;5.00;99.90;;;;;;5011798;28;20690;-57
2021/11/26 05:52:28;;;;;;;46.27;28.60;;;5.00;99.90;;;;;;5011995;28;20211;-57
2021/11/26 05:54:55;;;;;;;48.63;28.83;;;4.90;99.90;;;;;;5011836;28;20234;-57
2021/11/26 05:57:22;;;;;;;52.40;32.63;;;4.90;99.90;;;;;;5011691;28;20210;-57
2021/11/26 05:59:48;;;;;;;48.93;29.97;;;4.70;99.90;;;;;;5011257;28;20214;-57
2021/11/26 06:02:15;;;;;;;49.50;29.50;;;4.70;99.90;;;;;;5011944;28;20234;-57
2021/11/26 06:04:43;;;;;;;47.90;29.30;;;4.70;99.90;;;;;;5011614;28;20231;-57
2021/11/26 06:07:10;;;;;;;48.47;30.40;;;4.70;99.90;;;;;;5011299;28;20725;-57
2021/11/26 06:09:38;;;;;;;50.47;31.70;;;4.80;99.90;;;;;;5011301;28;20203;-57
2021/11/26 06:12:07;;;;;;;47.27;30.57;;;4.90;99.90;;;;;;5011723;28;20207;-57
2021/11/26 06:14:34;;;;;;;50.83;30.40;;;4.90;99.90;;;;;;5011792;28;20277;-57
2021/11/26 06:17:01;;;;;;;50.57;31.33;;;4.90;99.90;;;;;;5011727;28;20211;-57
2021/11/26 06:19:27;;;;;;;51.47;29.93;;;5.00;99.90;;;;;;5011750;28;20211;-57
2021/11/26 06:21:55;;;;;;;48.20;27.53;;;5.00;99.90;;;;;;5014032;28;20218;-57
2021/11/26 06:24:22;;;;;;;45.97;30.37;;;5.00;99.90;;;;;;5015352;28;20242;-57
2021/11/26 06:26:49;;;;;;;48.67;29.50;;;5.10;99.90;;;;;;5014885;28;20301;-57
2021/11/26 06:29:15;;;;;;;51.00;30.87;;;5.10;99.90;;;;;;5014825;28;20215;-57
2021/11/26 06:31:42;;;;;;;50.03;30.17;;;5.10;99.90;;;;;;5014763;28;20586;-57
2021/11/26 06:34:09;;;;;;;49.80;29.87;;;5.10;99.90;;;;;;5015342;28;20298;-57
2021/11/26 06:36:37;;;;;;;47.60;29.30;;;5.10;99.90;;;;;;5015228;28;20211;-57
2021/11/26 06:39:05;;;;;;;49.30;29.43;;;5.10;99.90;;;;;;5014659;28;20215;-57
2021/11/26 06:41:32;;;;;;;48.23;28.70;;;5.20;99.90;;;;;;5014595;28;20594;-57
2021/11/26 06:43:59;;;;;;;61.10;35.30;;;5.20;99.90;;;;;;5014763;28;20222;-57
2021/11/26 06:46:26;;;;;;;49.67;29.60;;;5.30;99.90;;;;;;5014619;28;20227;-56
2021/11/26 06:48:53;;;;;;;52.60;29.90;;;5.30;99.90;;;;;;5014518;28;20206;-57
2021/11/26 06:51:20;;;;;;;53.43;30.43;;;5.30;99.90;;;;;;5014715;28;20701;-57
2021/11/26 06:53:47;;;;;;;52.13;29.83;;;5.30;99.90;;;;;;5014400;28;20645;-56
2021/11/26 06:56:15;;;;;;;47.07;30.37;;;5.30;99.90;;;;;;5014381;28;20261;-57
2021/11/26 06:58:41;;;;;;;47.37;29.60;;;5.30;99.90;;;;;;5014121;28;20218;-56
2021/11/26 07:01:10;;;;;;;44.50;29.47;;;5.30;99.90;;;;;;5014143;28;20701;-57
2021/11/26 07:03:37;;;;;;;48.90;29.60;;;5.30;99.90;;;;;;5014124;28;20710;-57
2021/11/26 07:06:03;;;;;;;49.13;29.33;;;5.30;99.90;;;;;;5014931;28;20234;-57
2021/11/26 07:08:30;;;;;;;44.77;28.17;;;5.30;99.90;;;;;;5014178;28;20667;-57
2021/11/26 07:10:57;;;;;;;55.43;34.47;;;5.30;99.90;;;;;;5014042;28;20214;-57
2021/11/26 07:13:25;;;;;;;52.13;31.77;;;5.10;99.90;;;;;;5014051;28;20575;-57
2021/11/26 07:15:51;;;;;;;53.37;31.73;;;5.20;99.90;;;;;;5013911;28;20588;-57
2021/11/26 07:18:18;;;;;;;43.83;27.47;;;5.30;99.90;;;;;;5014486;28;20206;-57
2021/11/26 07:20:45;;;;;;;44.63;27.73;;;5.30;99.90;;;;;;5013981;28;20211;-55
2021/11/26 07:23:12;;;;;;;45.57;28.07;;;5.30;99.90;;;;;;5013680;28;20243;-56
2021/11/26 07:25:38;;;;;;;42.97;27.50;;;5.30;99.90;;;;;;5014135;28;20303;-57
2021/11/26 07:28:05;;;;;;;44.40;28.13;;;5.40;99.90;;;;;;5013771;28;20226;-57
2021/11/26 07:30:33;;;;;;;46.57;27.60;;;5.40;99.90;;;;;;5013571;28;20207;-57
2021/11/26 07:33:00;;;;;;;44.17;27.07;;;5.40;99.90;;;;;;5012648;28;20277;-55
2021/11/26 07:35:27;;;;;;;43.80;27.57;;;5.40;99.90;;;;;;5013726;28;20207;-56
2021/11/26 07:37:53;;;;;;;46.33;28.37;;;5.40;99.90;;;;;;5013554;28;20750;-56
2021/11/26 07:40:20;;;;;;;43.97;26.80;;;5.40;99.90;;;;;;5013455;28;20206;-56
2021/11/26 07:42:47;;;;;;;47.63;28.23;;;5.40;99.90;;;;;;5013458;28;20202;-56
2021/11/26 07:45:14;;;;;;;42.10;26.60;;;5.40;99.90;;;;;;5013530;28;20207;-56
2021/11/26 07:47:42;;;;;;;42.83;26.30;;;5.40;99.90;;;;;;5013734;28;20230;-56
2021/11/26 07:50:11;;;;;;;44.50;28.27;;;5.50;99.90;;;;;;5013154;28;20210;-57
2021/11/26 07:52:42;;;;;;;45.40;28.13;;;5.50;99.90;;;;;;5013673;28;20215;-56
2021/11/26 07:55:10;;;;;;;46.23;28.43;;;5.50;99.90;;;;;;5013635;28;20234;-56
2021/11/26 07:57:37;;;;;;;45.73;27.77;;;5.50;99.90;;;;;;5013240;28;20581;-56
2021/11/26 08:00:05;;;;;;;46.47;29.53;;;5.40;99.90;;;;;;5013053;28;20218;-56
2021/11/26 08:02:32;;;;;;;48.60;29.43;;;5.50;99.90;;;;;;5013125;28;20675;-56
2021/11/26 08:05:00;;;;;;;46.60;27.93;;;5.60;99.90;;;;;;5013037;28;20235;-56
2021/11/26 08:07:26;;;;;;;40.80;27.23;;;5.60;99.90;;;;;;5013205;28;20231;-57
2021/11/26 08:09:53;;;;;;;42.57;26.90;;;5.60;99.90;;;;;;5013135;28;20207;-57
2021/11/26 08:12:21;;;;;;;48.20;27.70;;;5.70;99.90;;;;;;5012971;28;20620;-56
2021/11/26 08:14:49;;;;;;;46.47;27.87;;;5.70;99.90;;;;;;5012873;28;20237;-57
2021/11/26 08:17:16;;;;;;;46.77;27.70;;;5.70;99.90;;;;;;5012867;28;20242;-57
2021/11/26 08:19:43;;;;;;;43.90;26.63;;;5.70;99.90;;;;;;5012565;28;20741;-57
2021/11/26 08:22:12;;;;;;;44.13;27.53;;;5.70;99.90;;;;;;5013184;28;20632;-57
2021/11/26 08:24:39;;;;;;;47.23;28.10;;;5.80;99.90;;;;;;5012753;28;20239;-57
2021/11/26 08:27:05;;;;;;;45.17;27.27;;;5.80;99.90;;;;;;5012994;28;20242;-58
2021/11/26 08:29:32;;;;;;;49.57;28.40;;;5.80;99.90;;;;;;5012542;28;20211;-57
2021/11/26 08:31:59;;;;;;;45.77;28.20;;;5.80;99.90;;;;;;5012656;28;20207;-57
2021/11/26 08:34:27;;;;;;;44.43;28.80;;;5.90;99.90;;;;;;5012821;28;20234;-56
2021/11/26 08:36:54;;;;;;;40.67;26.13;;;5.90;99.90;;;;;;5012827;28;20556;-57
2021/11/26 08:39:22;;;;;;;44.33;28.33;;;5.80;99.90;;;;;;5012519;28;20218;-57
2021/11/26 08:41:48;;;;;;;46.33;27.73;;;5.80;99.90;;;;;;5012467;28;20214;-57
2021/11/26 08:44:15;;;;;;;40.93;27.20;;;5.80;99.90;;;;;;5012096;28;20637;-57
2021/11/26 08:46:42;;;;;;;45.83;27.40;;;5.80;99.90;;;;;;5012339;28;20210;-56
2021/11/26 08:49:09;;;;;;;42.70;28.13;;;5.90;99.90;;;;;;5012246;28;20273;-57
2021/11/26 08:51:39;;;;;;;41.47;27.53;;;6.00;99.90;;;;;;5012478;28;20752;-56
2021/11/26 08:54:06;;;;;;;41.90;26.33;;;6.00;99.90;;;;;;5012267;28;20289;-56
2021/11/26 08:56:34;;;;;;;40.07;26.80;;;6.00;99.90;;;;;;5012365;28;20218;-57
2021/11/26 08:59:02;;;;;;;43.23;26.27;;;6.10;99.90;;;;;;5011916;28;20207;-57
2021/11/26 09:01:31;;;;;;;43.50;27.37;;;6.10;99.90;;;;;;5012520;28;20265;-57
2021/11/26 09:03:57;;;;;;;47.97;29.83;;;6.20;99.90;;;;;;5012315;28;20265;-57
2021/11/26 09:06:24;;;;;;;76.70;45.80;;;6.30;99.90;;;;;;5012209;28;20667;-56
2021/11/26 09:08:52;;;;;;;58.10;35.70;;;6.30;99.90;;;;;;5011858;28;20254;-57
2021/11/26 09:11:18;;;;;;;43.40;27.40;;;6.40;99.90;;;;;;5012187;28;20206;-57
2021/11/26 09:13:47;;;;;;;42.10;27.10;;;6.60;99.90;;;;;;5012001;28;20241;-57
2021/11/26 09:16:14;;;;;;;42.97;26.77;;;6.60;99.90;;;;;;5012325;28;20210;-57
2021/11/26 09:18:42;;;;;;;42.37;27.23;;;6.60;99.90;;;;;;5012425;28;20214;-57
2021/11/26 09:21:09;;;;;;;44.00;27.07;;;6.60;99.90;;;;;;5011888;28;20210;-57
2021/11/26 09:23:36;;;;;;;44.60;26.57;;;6.60;99.90;;;;;;5011819;28;20238;-56
2021/11/26 09:26:04;;;;;;;44.60;26.40;;;6.50;99.90;;;;;;5012131;28;20222;-56
2021/11/26 09:28:30;;;;;;;42.17;26.87;;;6.60;99.90;;;;;;5011901;28;20233;-57
2021/11/26 09:30:58;;;;;;;46.47;27.00;;;6.60;99.90;;;;;;5012194;28;20614;-62
2021/11/26 09:33:32;;;;;;;43.87;27.27;;;6.60;99.90;;;;;;5012726;28;20238;-63
2021/11/26 09:35:59;;;;;;;40.60;25.80;;;6.70;99.90;;;;;;4991585;28;20227;-60
2021/11/26 09:38:26;;;;;;;44.03;26.13;;;6.70;99.90;;;;;;4992414;28;20212;-61
2021/11/26 09:40:53;;;;;;;39.87;25.93;;;6.70;99.90;;;;;;4991902;28;20208;-60
2021/11/26 09:43:19;;;;;;;43.50;26.50;;;6.70;99.90;;;;;;4992191;28;20224;-61
2021/11/26 09:45:46;;;;;;;41.93;25.83;;;6.70;99.90;;;;;;4992156;28;20215;-61
2021/11/26 09:48:14;;;;;;;40.67;24.77;;;6.70;99.90;;;;;;4992422;28;20318;-61
2021/11/26 09:50:41;;;;;;;37.27;24.77;;;6.70;99.90;;;;;;4992210;28;20212;-62
2021/11/26 09:53:14;;;;;;;42.13;25.83;;;6.70;99.90;;;;;;4992272;28;20232;-62
2021/11/26 09:55:46;;;;;;;41.73;26.17;;;6.60;99.90;;;;;;4993134;28;20211;-61
2021/11/26 09:58:13;;;;;;;38.77;24.00;;;6.60;99.90;;;;;;4996321;28;20211;-62
2021/11/26 10:00:41;;;;;;;38.80;24.33;;;6.60;99.90;;;;;;4995879;28;20211;-64
2021/11/26 10:03:08;;;;;;;36.17;24.20;;;6.60;99.90;;;;;;4995945;28;20228;-61
2021/11/26 10:05:37;;;;;;;39.70;25.00;;;6.70;99.90;;;;;;4994313;28;20219;-59
2021/11/26 10:08:04;;;;;;;39.40;24.27;;;6.70;99.90;;;;;;4995935;28;20231;-62
2021/11/26 10:10:35;;;;;;;38.43;23.57;;;6.70;99.90;;;;;;4995711;28;20562;-62
2021/11/26 10:13:05;;;;;;;38.77;24.00;;;6.80;99.90;;;;;;4995950;28;20228;-62
2021/11/26 10:15:35;;;;;;;40.10;24.30;;;6.80;99.90;;;;;;4995974;28;20219;-62
2021/11/26 10:18:25;;;;;;;36.00;23.37;;;6.90;99.90;;;;;;4995921;28;20288;-60
2021/11/26 10:20:58;;;;;;;36.97;23.33;;;6.90;99.90;;;;;;4992661;28;20211;-60
2021/11/26 10:23:27;;;;;;;39.97;24.83;;;7.00;99.90;;;;;;4995406;28;20239;-60
2021/11/26 10:25:54;;;;;;;42.83;24.97;;;7.20;99.90;;;;;;4995643;28;20221;-59
2021/11/26 10:28:22;;;;;;;34.50;24.00;;;7.30;99.90;;;;;;4995323;28;20221;-59
2021/11/26 10:30:51;;;;;;;37.80;23.67;;;7.30;99.90;;;;;;4995512;28;20599;-61
2021/11/26 10:33:23;;;;;;;37.50;23.20;;;7.40;99.90;;;;;;4995506;28;20231;-62
2021/11/26 10:35:52;;;;;;;39.90;24.17;;;7.40;99.90;;;;;;4995780;28;20208;-61
2021/11/26 10:38:24;;;;;;;37.90;23.07;;;7.50;99.90;;;;;;4995210;28;20227;-62
2021/11/26 10:40:53;;;;;;;34.40;23.00;;;7.50;99.90;;;;;;4995108;28;20246;-61
2021/11/26 10:43:24;;;;;;;37.30;24.67;;;7.50;99.90;;;;;;4994952;28;20228;-61
2021/11/26 10:48:57;;;;;;;35.50;23.33;;;7.50;99.90;;;;;;4995091;28;20227;-62
2021/11/26 10:51:34;;;;;;;34.10;23.53;;;7.40;99.90;;;;;;4994935;28;20674;-62
2021/11/26 10:59:53;;;;;;;37.27;24.53;;;7.60;99.90;;;;;;5088866;28;20537;-61
2021/11/26 11:02:27;;;;;;;34.20;22.83;;;7.50;99.90;;;;;;5089540;28;20212;-60
2021/11/26 11:04:55;;;;;;;35.67;22.70;;;7.50;99.90;;;;;;5089326;28;20223;-61
2021/11/26 11:07:22;;;;;;;39.07;25.10;;;7.50;99.90;;;;;;5089394;28;20208;-60
2021/11/26 11:09:53;;;;;;;37.77;24.03;;;7.40;99.90;;;;;;5089299;28;20215;-59
2021/11/26 11:12:29;;;;;;;38.30;23.83;;;7.40;99.90;;;;;;5089677;28;20204;-63
2021/11/26 11:15:00;;;;;;;39.97;24.63;;;7.30;99.90;;;;;;5089658;28;20228;-63
2021/11/26 11:17:28;;;;;;;35.77;23.50;;;7.20;99.90;;;;;;5089612;28;20208;-64
2021/11/26 11:19:57;;;;;;;38.47;23.67;;;7.30;99.90;;;;;;5088601;28;20698;-63
2021/11/26 11:22:24;;;;;;;38.90;23.47;;;7.30;99.90;;;;;;5089175;28;20208;-62
2021/11/26 11:24:51;;;;;;;38.97;23.90;;;7.30;99.90;;;;;;5089513;28;20224;-64
2021/11/26 11:27:18;;;;;;;36.97;24.27;;;7.30;99.90;;;;;;5089457;28;20208;-64
2021/11/26 11:29:46;;;;;;;37.30;23.20;;;7.30;99.90;;;;;;5088664;28;20672;-64
2021/11/26 11:32:14;;;;;;;41.87;23.70;;;7.30;99.90;;;;;;5089541;28;20695;-63
2021/11/26 11:34:42;;;;;;;36.63;23.90;;;7.40;99.90;;;;;;5089016;28;20255;-63
2021/11/26 11:37:10;;;;;;;40.50;23.90;;;7.50;99.90;;;;;;5088849;28;20204;-63
2021/11/26 11:39:44;;;;;;;40.53;23.70;;;7.50;99.90;;;;;;5088440;28;20228;-64
2021/11/26 11:42:11;;;;;;;37.33;24.17;;;7.50;99.90;;;;;;5088975;28;20567;-64
2021/11/26 11:44:40;;;;;;;37.28;23.50;;;7.50;99.90;;;;;;5088523;28;20440;-60
2021/11/26 11:47:19;;;;;;;38.80;23.70;;;7.40;99.90;;;;;;5088562;28;20207;-57
2021/11/26 11:49:46;;;;;;;38.50;23.63;;;7.40;99.90;;;;;;5088377;28;20242;-59
2021/11/26 11:52:15;;;;;;;38.60;23.57;;;7.40;99.90;;;;;;5088594;28;20207;-62
2021/11/26 11:54:43;;;;;;;38.10;24.47;;;7.50;99.90;;;;;;5088535;28;20277;-63
2021/11/26 11:57:22;;;;;;;38.07;23.97;;;7.50;99.90;;;;;;5088708;28;20204;-60
2021/11/26 11:59:50;;;;;;;37.43;23.93;;;7.40;99.90;;;;;;5084671;28;20224;-57
2021/11/26 12:02:27;;;;;;;39.40;24.73;;;7.40;99.90;;;;;;5088054;28;20299;-57
2021/11/26 12:04:56;;;;;;;42.27;25.03;;;7.30;99.90;;;;;;5088367;28;20228;-56
2021/11/26 12:07:25;;;;;;;40.10;25.57;;;7.20;99.90;;;;;;5088062;28;20676;-57
2021/11/26 12:10:02;;;;;;;40.07;24.33;;;7.20;99.90;;;;;;5082165;28;20254;-59
2021/11/26 12:12:29;;;;;;;42.90;25.07;;;7.30;99.90;;;;;;5074756;28;20219;-58
2021/11/26 12:14:58;;;;;;;41.90;25.70;;;7.30;99.90;;;;;;5074400;28;20224;-59
2021/11/26 12:17:30;;;;;;;41.70;25.93;;;7.40;99.90;;;;;;5074857;28;20208;-59
2021/11/26 12:20:11;;;;;;;38.33;24.07;;;7.40;99.90;;;;;;5074113;28;20251;-63
2021/11/26 12:22:41;;;;;;;40.43;24.90;;;7.40;99.90;;;;;;5074808;28;20204;-60
2021/11/26 12:25:20;;;;;;;37.20;23.63;;;7.40;99.90;;;;;;5074318;28;20578;-59
2021/11/26 12:27:55;;;;;;;39.47;24.20;;;7.40;99.90;;;;;;5074860;28;20204;-60
2021/11/26 12:30:22;;;;;;;40.83;25.23;;;7.50;99.90;;;;;;5074182;28;20213;-59
2021/11/26 12:32:50;;;;;;;38.07;23.33;;;7.50;99.90;;;;;;5074852;28;20212;-59
2021/11/26 12:35:17;;;;;;;39.63;24.40;;;7.50;99.90;;;;;;5075000;28;20216;-62
2021/11/26 12:37:45;;;;;;;35.67;22.87;;;7.50;99.90;;;;;;5074297;28;20701;-60
2021/11/26 12:40:14;;;;;;;34.23;22.20;;;7.50;99.90;;;;;;5069996;28;20220;-61
2021/11/26 12:42:41;;;;;;;37.47;22.17;;;7.40;99.90;;;;;;5074602;28;20204;-61
2021/11/26 12:45:11;;;;;;;36.77;21.87;;;7.40;99.90;;;;;;5074339;28;20231;-62
2021/11/26 12:47:41;;;;;;;39.33;23.73;;;7.20;99.90;;;;;;5074449;28;20212;-61